Tenants Harbor, Maine
Current Conditions -  °F | °C
As of 11:55 AM on Tuesday 27 Jan 2015 (Local Time) from KRKD Reporting Station
Overcast Overcast  
Wind Chill: -4°   Ceiling: 600
Heat Index: 16°   Visibility: 0.25mi
Dew Point: 14°   Wind: 28mph
Humidity: 93%   Direction: 20°NNE
Pressure: 29.52"   Gusts: 46mph
Location:  43.97°N, 69.21°W
Report Text: KRKD 271655Z AUTO 02024G40KT 1/4SM OVC006 M09/M10 A2952 RMK AO1
Loading
Personal Weather Stations






























Interactive Weather Map New forecast layout! Learn more

10-Day Weather Forecast

Advertisements
Track Severe Weather on mobile